N395T MYSM-KSUA
Flight info
| Callsign | N395T |
|---|---|
| Flight time | N/A |
| Altitude | 16000 |
| Route | BRRGO BR1L ZFP SURFN |
| Aircraft | PC12/L-SDFGRWY/S |
Departure
| Time | 2026-05-04 17:35 |
|---|---|
| Airport | San Salvador International Airport (MYSM) |
Arrival
| Time | N/A |
|---|---|
| Airport | Witham Field (KSUA) |
| Time | Latitude | Longitude | Altitude | Speed | Heading |
|---|---|---|---|---|---|
| 2026-05-04 17:29 | 24.06538 | -74.53216 | 23 ft | 0 kts | 12° |
| 2026-05-04 17:31 | 24.06523 | -74.53248 | 23 ft | 8 kts | 188° |
| 2026-05-04 17:31 | 24.06382 | -74.53179 | 23 ft | 15 kts | 97° |
| 2026-05-04 17:32 | 24.06353 | -74.52840 | 25 ft | 23 kts | 95° |
| 2026-05-04 17:33 | 24.06290 | -74.52059 | 31 ft | 38 kts | 95° |
| 2026-05-04 17:33 | 24.06268 | -74.51785 | 33 ft | 34 kts | 95° |
| 2026-05-04 17:34 | 24.06268 | -74.51233 | 34 ft | 15 kts | 70° |
| 2026-05-04 17:34 | 24.06233 | -74.51187 | 35 ft | 8 kts | 212° |
| 2026-05-04 17:35 | 24.06308 | -74.52259 | 77 ft | 95 kts | 275° |
| 2026-05-04 17:35 | 24.06472 | -74.53889 | 652 ft | 125 kts | 280° |
| 2026-05-04 17:35 | 24.06867 | -74.54829 | 931 ft | 146 kts | 306° |
| 2026-05-04 17:36 | 24.07686 | -74.55492 | 1403 ft | 152 kts | 332° |
| 2026-05-04 17:36 | 24.08676 | -74.55966 | 1839 ft | 156 kts | 334° |
| 2026-05-04 17:36 | 24.09703 | -74.56424 | 2236 ft | 164 kts | 332° |
| 2026-05-04 17:36 | 24.10655 | -74.57080 | 2705 ft | 160 kts | 312° |
| 2026-05-04 17:37 | 24.11466 | -74.57966 | 3023 ft | 170 kts | 311° |
| 2026-05-04 17:37 | 24.12336 | -74.58894 | 3334 ft | 178 kts | 313° |
| 2026-05-04 17:37 | 24.13241 | -74.59845 | 3644 ft | 181 kts | 313° |
| 2026-05-04 17:37 | 24.14154 | -74.60809 | 3954 ft | 183 kts | 313° |
| 2026-05-04 17:38 | 24.15059 | -74.61766 | 4264 ft | 184 kts | 313° |
| 2026-05-04 17:38 | 24.15980 | -74.62740 | 4583 ft | 184 kts | 313° |
| 2026-05-04 17:38 | 24.16905 | -74.63719 | 4903 ft | 185 kts | 313° |
| 2026-05-04 17:38 | 24.17835 | -74.64702 | 5204 ft | 186 kts | 313° |
| 2026-05-04 17:39 | 24.19691 | -74.66667 | 5834 ft | 185 kts | 313° |
| 2026-05-04 17:39 | 24.20615 | -74.67646 | 6155 ft | 185 kts | 314° |
| 2026-05-04 17:39 | 24.21493 | -74.68576 | 6455 ft | 184 kts | 314° |
| 2026-05-04 17:40 | 24.22414 | -74.69552 | 6757 ft | 184 kts | 313° |
| 2026-05-04 17:40 | 24.23335 | -74.70528 | 7058 ft | 184 kts | 313° |
| 2026-05-04 17:40 | 24.24255 | -74.71504 | 7367 ft | 183 kts | 313° |
| 2026-05-04 17:40 | 24.25173 | -74.72476 | 7676 ft | 183 kts | 312° |
| 2026-05-04 17:41 | 24.26085 | -74.73444 | 7986 ft | 182 kts | 312° |
| 2026-05-04 17:41 | 24.26995 | -74.74409 | 8295 ft | 182 kts | 312° |
| 2026-05-04 17:41 | 24.27902 | -74.75372 | 8612 ft | 181 kts | 312° |
| 2026-05-04 17:41 | 24.28805 | -74.76331 | 8937 ft | 181 kts | 311° |
| 2026-05-04 17:42 | 24.29696 | -74.77276 | 9252 ft | 180 kts | 311° |
| 2026-05-04 17:42 | 24.30606 | -74.78242 | 9589 ft | 179 kts | 311° |
| 2026-05-04 17:42 | 24.31487 | -74.79178 | 9914 ft | 179 kts | 311° |
| 2026-05-04 17:42 | 24.32378 | -74.80124 | 10212 ft | 178 kts | 310° |
| 2026-05-04 17:43 | 24.33273 | -74.81076 | 10515 ft | 180 kts | 310° |
| 2026-05-04 17:43 | 24.34176 | -74.82037 | 10819 ft | 182 kts | 310° |
| 2026-05-04 17:43 | 24.35092 | -74.83009 | 11130 ft | 184 kts | 310° |
| 2026-05-04 17:43 | 24.36014 | -74.83990 | 11439 ft | 186 kts | 310° |
| 2026-05-04 17:44 | 24.36943 | -74.84977 | 11752 ft | 187 kts | 310° |
| 2026-05-04 17:44 | 24.37882 | -74.85975 | 12072 ft | 188 kts | 310° |
| 2026-05-04 17:44 | 24.38822 | -74.86975 | 12391 ft | 189 kts | 310° |
| 2026-05-04 17:44 | 24.39769 | -74.87983 | 12716 ft | 191 kts | 309° |
| 2026-05-04 17:45 | 24.40738 | -74.89015 | 12964 ft | 197 kts | 310° |
| 2026-05-04 17:45 | 24.41732 | -74.90073 | 13219 ft | 200 kts | 310° |
| 2026-05-04 17:45 | 24.42741 | -74.91147 | 13478 ft | 203 kts | 310° |
| 2026-05-04 17:45 | 24.43762 | -74.92233 | 13737 ft | 205 kts | 310° |
| 2026-05-04 17:46 | 24.44779 | -74.93317 | 13971 ft | 207 kts | 310° |
| 2026-05-04 17:46 | 24.45814 | -74.94419 | 14195 ft | 207 kts | 310° |
| 2026-05-04 17:46 | 24.46851 | -74.95524 | 14424 ft | 208 kts | 310° |
| 2026-05-04 17:46 | 24.47889 | -74.96630 | 14659 ft | 208 kts | 310° |
| 2026-05-04 17:47 | 24.48926 | -74.97735 | 14891 ft | 208 kts | 310° |
| 2026-05-04 17:47 | 24.49965 | -74.98844 | 15127 ft | 208 kts | 310° |
| 2026-05-04 17:47 | 24.51005 | -74.99953 | 15363 ft | 208 kts | 309° |
| 2026-05-04 17:47 | 24.52031 | -75.01048 | 15599 ft | 208 kts | 310° |
| 2026-05-04 17:48 | 24.53069 | -75.02156 | 15838 ft | 208 kts | 309° |
| 2026-05-04 17:48 | 24.54113 | -75.03273 | 15949 ft | 214 kts | 310° |
| 2026-05-04 17:48 | 24.55205 | -75.04442 | 15955 ft | 223 kts | 310° |
| 2026-05-04 17:48 | 24.56337 | -75.05650 | 15957 ft | 230 kts | 310° |
| 2026-05-04 17:49 | 24.57495 | -75.06885 | 15957 ft | 234 kts | 310° |
| 2026-05-04 17:49 | 24.58676 | -75.08146 | 15962 ft | 238 kts | 310° |
| 2026-05-04 17:49 | 24.59870 | -75.09422 | 15962 ft | 241 kts | 310° |
| 2026-05-04 17:49 | 24.61075 | -75.10710 | 15965 ft | 243 kts | 310° |
| 2026-05-04 17:50 | 24.62288 | -75.12007 | 15965 ft | 244 kts | 310° |
| 2026-05-04 17:50 | 24.63507 | -75.13311 | 15965 ft | 246 kts | 310° |
| 2026-05-04 17:50 | 24.64736 | -75.14626 | 15967 ft | 247 kts | 310° |
| 2026-05-04 17:50 | 24.65953 | -75.15929 | 15966 ft | 248 kts | 310° |
| 2026-05-04 17:51 | 24.67190 | -75.17254 | 15965 ft | 249 kts | 310° |
| 2026-05-04 17:51 | 24.68430 | -75.18582 | 15964 ft | 248 kts | 310° |
| 2026-05-04 17:51 | 24.69668 | -75.19908 | 15967 ft | 248 kts | 310° |
| 2026-05-04 17:51 | 24.70908 | -75.21238 | 15964 ft | 248 kts | 310° |
| 2026-05-04 17:52 | 24.72142 | -75.22561 | 15965 ft | 248 kts | 310° |
| 2026-05-04 17:52 | 24.73376 | -75.23884 | 15966 ft | 248 kts | 310° |
| 2026-05-04 17:52 | 24.74616 | -75.25214 | 15966 ft | 248 kts | 310° |
| 2026-05-04 17:52 | 24.75849 | -75.26538 | 15967 ft | 248 kts | 310° |
| 2026-05-04 17:53 | 24.77085 | -75.27864 | 15964 ft | 248 kts | 311° |
| 2026-05-04 17:53 | 24.78315 | -75.29186 | 15966 ft | 247 kts | 311° |
| 2026-05-04 17:53 | 24.79534 | -75.30495 | 15965 ft | 247 kts | 311° |
| 2026-05-04 17:53 | 24.80765 | -75.31817 | 15968 ft | 247 kts | 311° |
| 2026-05-04 17:54 | 24.81993 | -75.33138 | 15964 ft | 247 kts | 311° |
| 2026-05-04 17:54 | 24.83226 | -75.34463 | 15964 ft | 247 kts | 311° |
| 2026-05-04 17:54 | 24.84455 | -75.35785 | 15967 ft | 247 kts | 311° |
| 2026-05-04 17:54 | 24.85623 | -75.37153 | 15962 ft | 242 kts | 301° |
| 2026-05-04 17:55 | 24.86492 | -75.38724 | 15959 ft | 240 kts | 296° |
| 2026-05-04 17:55 | 24.87331 | -75.40316 | 15960 ft | 241 kts | 296° |
| 2026-05-04 17:55 | 24.88186 | -75.41907 | 15962 ft | 241 kts | 297° |
| 2026-05-04 17:55 | 24.89038 | -75.43477 | 15964 ft | 242 kts | 297° |
| 2026-05-04 17:56 | 24.89900 | -75.45071 | 15965 ft | 242 kts | 297° |
| 2026-05-04 17:56 | 24.90759 | -75.46663 | 15962 ft | 242 kts | 297° |
| 2026-05-04 17:56 | 24.91618 | -75.48256 | 15965 ft | 242 kts | 297° |
| 2026-05-04 17:56 | 24.92480 | -75.49855 | 15964 ft | 242 kts | 297° |
| 2026-05-04 17:57 | 24.93340 | -75.51449 | 15964 ft | 242 kts | 297° |
| 2026-05-04 17:57 | 24.94198 | -75.53043 | 15962 ft | 242 kts | 297° |
| 2026-05-04 17:57 | 24.95057 | -75.54637 | 15960 ft | 242 kts | 297° |
| 2026-05-04 17:57 | 24.95916 | -75.56232 | 15961 ft | 242 kts | 297° |
| 2026-05-04 17:58 | 24.96774 | -75.57825 | 15964 ft | 242 kts | 297° |
| 2026-05-04 17:58 | 24.97633 | -75.59422 | 15960 ft | 242 kts | 297° |
| 2026-05-04 17:58 | 24.98492 | -75.61020 | 15963 ft | 242 kts | 297° |
| 2026-05-04 17:58 | 24.99349 | -75.62613 | 15963 ft | 242 kts | 297° |
| 2026-05-04 17:59 | 25.00196 | -75.64189 | 15964 ft | 242 kts | 297° |
| 2026-05-04 17:59 | 25.01054 | -75.65787 | 15960 ft | 242 kts | 297° |
| 2026-05-04 17:59 | 25.02768 | -75.68977 | 15959 ft | 242 kts | 297° |
| 2026-05-04 18:00 | 25.03625 | -75.70573 | 15955 ft | 242 kts | 297° |
| 2026-05-04 18:00 | 25.04480 | -75.72168 | 15955 ft | 242 kts | 297° |
| 2026-05-04 18:00 | 25.05336 | -75.73763 | 15954 ft | 241 kts | 297° |
| 2026-05-04 18:00 | 25.06191 | -75.75358 | 15956 ft | 241 kts | 297° |
| 2026-05-04 18:01 | 25.07045 | -75.76950 | 15958 ft | 241 kts | 297° |
| 2026-05-04 18:01 | 25.07900 | -75.78546 | 15956 ft | 241 kts | 297° |
| 2026-05-04 18:01 | 25.08757 | -75.80146 | 15959 ft | 241 kts | 297° |
| 2026-05-04 18:02 | 25.10455 | -75.83318 | 15959 ft | 241 kts | 297° |
| 2026-05-04 18:02 | 25.11309 | -75.84914 | 15956 ft | 241 kts | 297° |
| 2026-05-04 18:02 | 25.12166 | -75.86515 | 15959 ft | 241 kts | 297° |
| 2026-05-04 18:02 | 25.13019 | -75.88111 | 15959 ft | 241 kts | 297° |
| 2026-05-04 18:03 | 25.13873 | -75.89708 | 15958 ft | 241 kts | 297° |
| 2026-05-04 18:03 | 25.14726 | -75.91304 | 15956 ft | 241 kts | 297° |
| 2026-05-04 18:03 | 25.15577 | -75.92899 | 15957 ft | 241 kts | 297° |
| 2026-05-04 18:03 | 25.16428 | -75.94491 | 15959 ft | 241 kts | 297° |
| 2026-05-04 18:04 | 25.17269 | -75.96067 | 15959 ft | 241 kts | 297° |
| 2026-05-04 18:04 | 25.18133 | -75.97686 | 15954 ft | 241 kts | 297° |
| 2026-05-04 18:04 | 25.19825 | -76.00858 | 15956 ft | 241 kts | 297° |
| 2026-05-04 18:05 | 25.20677 | -76.02458 | 15956 ft | 241 kts | 297° |
| 2026-05-04 18:05 | 25.21529 | -76.04054 | 15956 ft | 241 kts | 297° |
| 2026-05-04 18:05 | 25.22378 | -76.05648 | 15953 ft | 241 kts | 297° |
| 2026-05-04 18:05 | 25.23227 | -76.07243 | 15954 ft | 241 kts | 297° |
| 2026-05-04 18:06 | 25.24928 | -76.10438 | 15952 ft | 241 kts | 297° |
| 2026-05-04 18:06 | 25.25778 | -76.12037 | 15952 ft | 241 kts | 297° |
| 2026-05-04 18:06 | 25.26628 | -76.13635 | 15953 ft | 241 kts | 297° |
| 2026-05-04 18:07 | 25.27476 | -76.15230 | 15952 ft | 241 kts | 297° |
| 2026-05-04 18:07 | 25.28308 | -76.16796 | 15951 ft | 241 kts | 297° |
| 2026-05-04 18:07 | 25.29138 | -76.18358 | 15946 ft | 241 kts | 297° |
| 2026-05-04 18:07 | 25.29994 | -76.19971 | 15950 ft | 241 kts | 297° |
| 2026-05-04 18:08 | 25.30842 | -76.21567 | 15952 ft | 241 kts | 297° |
| 2026-05-04 18:08 | 25.31691 | -76.23166 | 15950 ft | 241 kts | 297° |
| 2026-05-04 18:08 | 25.32541 | -76.24769 | 15954 ft | 241 kts | 297° |
| 2026-05-04 18:08 | 25.33386 | -76.26362 | 15950 ft | 241 kts | 297° |
| 2026-05-04 18:09 | 25.35080 | -76.29557 | 15951 ft | 240 kts | 297° |
| 2026-05-04 18:09 | 25.36772 | -76.32752 | 15952 ft | 240 kts | 296° |
| 2026-05-04 18:10 | 25.37616 | -76.34346 | 15951 ft | 240 kts | 296° |
| 2026-05-04 18:10 | 25.38451 | -76.35923 | 15948 ft | 240 kts | 296° |
| 2026-05-04 18:10 | 25.39307 | -76.37540 | 15945 ft | 240 kts | 296° |
| 2026-05-04 18:10 | 25.40138 | -76.39113 | 15961 ft | 240 kts | 296° |
| 2026-05-04 18:11 | 25.40980 | -76.40705 | 15995 ft | 239 kts | 296° |
| 2026-05-04 18:11 | 25.41819 | -76.42292 | 15991 ft | 239 kts | 296° |
| 2026-05-04 18:11 | 25.42657 | -76.43879 | 15994 ft | 239 kts | 296° |
| 2026-05-04 18:11 | 25.43499 | -76.45473 | 15994 ft | 239 kts | 296° |
| 2026-05-04 18:12 | 25.44339 | -76.47063 | 15994 ft | 239 kts | 296° |
| 2026-05-04 18:12 | 25.45168 | -76.48635 | 15996 ft | 239 kts | 296° |
| 2026-05-04 18:12 | 25.46007 | -76.50225 | 15995 ft | 239 kts | 296° |
| 2026-05-04 18:12 | 25.46848 | -76.51818 | 15994 ft | 239 kts | 296° |
| 2026-05-04 18:13 | 25.47684 | -76.53405 | 15993 ft | 239 kts | 296° |
| 2026-05-04 18:13 | 25.48528 | -76.55006 | 15994 ft | 239 kts | 296° |
| 2026-05-04 18:13 | 25.50205 | -76.58188 | 15994 ft | 239 kts | 296° |
| 2026-05-04 18:14 | 25.51031 | -76.59757 | 15995 ft | 239 kts | 296° |
| 2026-05-04 18:14 | 25.51869 | -76.61349 | 15997 ft | 239 kts | 296° |
| 2026-05-04 18:14 | 25.52716 | -76.62959 | 15997 ft | 239 kts | 296° |
| 2026-05-04 18:15 | 25.54377 | -76.66117 | 15999 ft | 239 kts | 296° |
| 2026-05-04 18:15 | 25.56052 | -76.69304 | 16001 ft | 239 kts | 296° |
| 2026-05-04 18:15 | 25.56889 | -76.70898 | 16004 ft | 239 kts | 296° |
| 2026-05-04 18:16 | 25.57724 | -76.72488 | 16003 ft | 238 kts | 296° |
| 2026-05-04 18:16 | 25.58558 | -76.74076 | 16004 ft | 238 kts | 296° |
| 2026-05-04 18:16 | 25.59390 | -76.75662 | 16004 ft | 238 kts | 296° |
| 2026-05-04 18:17 | 25.60771 | -76.78295 | 16004 ft | 238 kts | 296° |
| 2026-05-04 18:17 | 25.61877 | -76.80403 | 16005 ft | 238 kts | 296° |
| 2026-05-04 18:17 | 25.63541 | -76.83579 | 16004 ft | 238 kts | 296° |
| 2026-05-04 18:18 | 25.64092 | -76.84632 | 16001 ft | 238 kts | 296° |
| 2026-05-04 18:18 | 25.64921 | -76.86215 | 15999 ft | 237 kts | 296° |
| 2026-05-04 18:18 | 25.65750 | -76.87800 | 16002 ft | 237 kts | 296° |
| 2026-05-04 18:18 | 25.66577 | -76.89380 | 16002 ft | 237 kts | 296° |
| 2026-05-04 18:19 | 25.68230 | -76.92540 | 16002 ft | 236 kts | 296° |
| 2026-05-04 18:19 | 25.69055 | -76.94120 | 16005 ft | 236 kts | 296° |
| 2026-05-04 18:19 | 25.69882 | -76.95702 | 16001 ft | 237 kts | 296° |
| 2026-05-04 18:20 | 25.70706 | -76.97279 | 16001 ft | 236 kts | 295° |
| 2026-05-04 18:20 | 25.71531 | -76.98858 | 16000 ft | 236 kts | 295° |
| 2026-05-04 18:20 | 25.72353 | -77.00435 | 16002 ft | 236 kts | 295° |
| 2026-05-04 18:20 | 25.73164 | -77.01989 | 16002 ft | 236 kts | 295° |
| 2026-05-04 18:21 | 25.73984 | -77.03560 | 16005 ft | 235 kts | 295° |
| 2026-05-04 18:21 | 25.74803 | -77.05132 | 16003 ft | 235 kts | 295° |
| 2026-05-04 18:21 | 25.75624 | -77.06706 | 16003 ft | 235 kts | 295° |
| 2026-05-04 18:21 | 25.76441 | -77.08275 | 16004 ft | 234 kts | 295° |
| 2026-05-04 18:22 | 25.77257 | -77.09840 | 16002 ft | 234 kts | 295° |
| 2026-05-04 18:22 | 25.78070 | -77.11402 | 16004 ft | 234 kts | 295° |
| 2026-05-04 18:22 | 25.78885 | -77.12968 | 16004 ft | 234 kts | 295° |
| 2026-05-04 18:22 | 25.79698 | -77.14530 | 16002 ft | 233 kts | 295° |
| 2026-05-04 18:23 | 25.80508 | -77.16088 | 16004 ft | 233 kts | 295° |
| 2026-05-04 18:23 | 25.81320 | -77.17649 | 16002 ft | 233 kts | 295° |
| 2026-05-04 18:23 | 25.82130 | -77.19208 | 16002 ft | 233 kts | 295° |
| 2026-05-04 18:23 | 25.82939 | -77.20765 | 16003 ft | 233 kts | 295° |
| 2026-05-04 18:24 | 25.83748 | -77.22323 | 16005 ft | 233 kts | 295° |
| 2026-05-04 18:24 | 25.84555 | -77.23877 | 16001 ft | 233 kts | 295° |
| 2026-05-04 18:24 | 25.85354 | -77.25415 | 16004 ft | 232 kts | 295° |
| 2026-05-04 18:24 | 25.86163 | -77.26974 | 16007 ft | 232 kts | 295° |
| 2026-05-04 18:25 | 25.86971 | -77.28532 | 16005 ft | 232 kts | 295° |
| 2026-05-04 18:25 | 25.87778 | -77.30089 | 16004 ft | 232 kts | 295° |
| 2026-05-04 18:25 | 25.88586 | -77.31647 | 16003 ft | 232 kts | 295° |
| 2026-05-04 18:25 | 25.89383 | -77.33186 | 16002 ft | 232 kts | 295° |
| 2026-05-04 18:26 | 25.90188 | -77.34739 | 16003 ft | 232 kts | 295° |
| 2026-05-04 18:26 | 25.90996 | -77.36298 | 16004 ft | 232 kts | 295° |
| 2026-05-04 18:26 | 25.91802 | -77.37856 | 16002 ft | 232 kts | 295° |
| 2026-05-04 18:26 | 25.92608 | -77.39413 | 16003 ft | 232 kts | 294° |
| 2026-05-04 18:27 | 25.93413 | -77.40970 | 16005 ft | 232 kts | 294° |
| 2026-05-04 18:27 | 25.94218 | -77.42527 | 16003 ft | 232 kts | 294° |
| 2026-05-04 18:27 | 25.95023 | -77.44083 | 16004 ft | 232 kts | 294° |
| 2026-05-04 18:27 | 25.95827 | -77.45639 | 16004 ft | 232 kts | 294° |
| 2026-05-04 18:28 | 25.96633 | -77.47199 | 16004 ft | 232 kts | 294° |
| 2026-05-04 18:28 | 25.97428 | -77.48740 | 16003 ft | 232 kts | 294° |
| 2026-05-04 18:28 | 25.98232 | -77.50296 | 16005 ft | 232 kts | 294° |
| 2026-05-04 18:28 | 25.98966 | -77.51882 | 16004 ft | 230 kts | 292° |
| 2026-05-04 18:29 | 25.99743 | -77.53442 | 16004 ft | 231 kts | 294° |
| 2026-05-04 18:29 | 26.00527 | -77.55004 | 16002 ft | 231 kts | 293° |
| 2026-05-04 18:29 | 26.01293 | -77.56579 | 16004 ft | 231 kts | 292° |
| 2026-05-04 18:29 | 26.02053 | -77.58155 | 16005 ft | 231 kts | 292° |
| 2026-05-04 18:30 | 26.03582 | -77.61308 | 16006 ft | 232 kts | 293° |
| 2026-05-04 18:30 | 26.04350 | -77.62891 | 16007 ft | 232 kts | 293° |
| 2026-05-04 18:30 | 26.05116 | -77.64471 | 16007 ft | 232 kts | 293° |
| 2026-05-04 18:31 | 26.05882 | -77.66052 | 16008 ft | 232 kts | 293° |
| 2026-05-04 18:31 | 26.06638 | -77.67613 | 16006 ft | 232 kts | 293° |
| 2026-05-04 18:31 | 26.07413 | -77.69213 | 16007 ft | 232 kts | 293° |
| 2026-05-04 18:31 | 26.08167 | -77.70772 | 16006 ft | 232 kts | 293° |
| 2026-05-04 18:32 | 26.08934 | -77.72357 | 16004 ft | 232 kts | 293° |
| 2026-05-04 18:32 | 26.09699 | -77.73939 | 16005 ft | 232 kts | 293° |
| 2026-05-04 18:32 | 26.10466 | -77.75524 | 16007 ft | 232 kts | 293° |
| 2026-05-04 18:32 | 26.11227 | -77.77101 | 16004 ft | 232 kts | 293° |
| 2026-05-04 18:33 | 26.11991 | -77.78681 | 16006 ft | 232 kts | 293° |
| 2026-05-04 18:33 | 26.12753 | -77.80259 | 16005 ft | 232 kts | 293° |
| 2026-05-04 18:33 | 26.13518 | -77.81844 | 16007 ft | 232 kts | 293° |
| 2026-05-04 18:33 | 26.14277 | -77.83418 | 16004 ft | 232 kts | 293° |
| 2026-05-04 18:34 | 26.15044 | -77.85008 | 16006 ft | 232 kts | 293° |
| 2026-05-04 18:34 | 26.15798 | -77.86571 | 16006 ft | 232 kts | 293° |
| 2026-05-04 18:34 | 26.16560 | -77.88153 | 16005 ft | 232 kts | 293° |
| 2026-05-04 18:34 | 26.17322 | -77.89734 | 16009 ft | 232 kts | 293° |
| 2026-05-04 18:35 | 26.18084 | -77.91315 | 16007 ft | 232 kts | 293° |
| 2026-05-04 18:35 | 26.18849 | -77.92905 | 16006 ft | 232 kts | 293° |
| 2026-05-04 18:35 | 26.19614 | -77.94493 | 16007 ft | 232 kts | 293° |
| 2026-05-04 18:35 | 26.20376 | -77.96078 | 16011 ft | 232 kts | 293° |
| 2026-05-04 18:36 | 26.21139 | -77.97664 | 16009 ft | 232 kts | 293° |
| 2026-05-04 18:36 | 26.21902 | -77.99250 | 16010 ft | 232 kts | 293° |
| 2026-05-04 18:36 | 26.22666 | -78.00840 | 16010 ft | 232 kts | 293° |
| 2026-05-04 18:36 | 26.23428 | -78.02426 | 16009 ft | 232 kts | 293° |
| 2026-05-04 18:37 | 26.24182 | -78.03997 | 16009 ft | 233 kts | 293° |
| 2026-05-04 18:37 | 26.24944 | -78.05584 | 16007 ft | 233 kts | 293° |
| 2026-05-04 18:37 | 26.25707 | -78.07174 | 16008 ft | 233 kts | 293° |
| 2026-05-04 18:37 | 26.26468 | -78.08759 | 16011 ft | 232 kts | 293° |
| 2026-05-04 18:38 | 26.27232 | -78.10353 | 16011 ft | 232 kts | 293° |
| 2026-05-04 18:38 | 26.27995 | -78.11944 | 16009 ft | 232 kts | 293° |
| 2026-05-04 18:38 | 26.28751 | -78.13522 | 16013 ft | 232 kts | 293° |
| 2026-05-04 18:38 | 26.29511 | -78.15108 | 16010 ft | 232 kts | 293° |
| 2026-05-04 18:39 | 26.30283 | -78.16720 | 16010 ft | 233 kts | 293° |
| 2026-05-04 18:39 | 26.31043 | -78.18309 | 16009 ft | 233 kts | 293° |
| 2026-05-04 18:39 | 26.31796 | -78.19882 | 16012 ft | 233 kts | 293° |
| 2026-05-04 18:39 | 26.32559 | -78.21477 | 16011 ft | 233 kts | 293° |
| 2026-05-04 18:40 | 26.33321 | -78.23070 | 16013 ft | 233 kts | 293° |
| 2026-05-04 18:40 | 26.34082 | -78.24664 | 16019 ft | 233 kts | 293° |
| 2026-05-04 18:40 | 26.34843 | -78.26256 | 16013 ft | 233 kts | 293° |
| 2026-05-04 18:40 | 26.35607 | -78.27855 | 16016 ft | 233 kts | 293° |
| 2026-05-04 18:41 | 26.36369 | -78.29451 | 16010 ft | 233 kts | 293° |
| 2026-05-04 18:41 | 26.37132 | -78.31048 | 16017 ft | 233 kts | 293° |
| 2026-05-04 18:41 | 26.37895 | -78.32649 | 16010 ft | 233 kts | 293° |
| 2026-05-04 18:41 | 26.38658 | -78.34247 | 16017 ft | 233 kts | 293° |
| 2026-05-04 18:42 | 26.39420 | -78.35845 | 16021 ft | 233 kts | 293° |
| 2026-05-04 18:42 | 26.40182 | -78.37445 | 16022 ft | 233 kts | 293° |
| 2026-05-04 18:42 | 26.40944 | -78.39045 | 16027 ft | 234 kts | 293° |
| 2026-05-04 18:42 | 26.41698 | -78.40627 | 16025 ft | 234 kts | 293° |
| 2026-05-04 18:43 | 26.42461 | -78.42229 | 16030 ft | 234 kts | 293° |
| 2026-05-04 18:43 | 26.43223 | -78.43830 | 16034 ft | 234 kts | 293° |
| 2026-05-04 18:43 | 26.43985 | -78.45432 | 16039 ft | 234 kts | 293° |
| 2026-05-04 18:43 | 26.44747 | -78.47035 | 16042 ft | 234 kts | 293° |
| 2026-05-04 18:44 | 26.45509 | -78.48638 | 16043 ft | 234 kts | 293° |
| 2026-05-04 18:44 | 26.46026 | -78.49725 | 16044 ft | 234 kts | 293° |
| 2026-05-04 18:44 | 26.47035 | -78.51849 | 16048 ft | 234 kts | 293° |
| 2026-05-04 18:44 | 26.47800 | -78.53461 | 16050 ft | 234 kts | 293° |
| 2026-05-04 18:45 | 26.48563 | -78.55068 | 16053 ft | 234 kts | 293° |
| 2026-05-04 18:45 | 26.49327 | -78.56678 | 16048 ft | 235 kts | 293° |
| 2026-05-04 18:45 | 26.50083 | -78.58271 | 16055 ft | 235 kts | 293° |
| 2026-05-04 18:45 | 26.50849 | -78.59887 | 16056 ft | 235 kts | 293° |
| 2026-05-04 18:46 | 26.51614 | -78.61501 | 16057 ft | 235 kts | 293° |
| 2026-05-04 18:46 | 26.52378 | -78.63114 | 16060 ft | 235 kts | 293° |
| 2026-05-04 18:46 | 26.53142 | -78.64726 | 16058 ft | 235 kts | 293° |
| 2026-05-04 18:46 | 26.53909 | -78.66347 | 16057 ft | 237 kts | 293° |
| 2026-05-04 18:47 | 26.54682 | -78.67981 | 16061 ft | 238 kts | 293° |
| 2026-05-04 18:47 | 26.55465 | -78.69625 | 16059 ft | 239 kts | 294° |
| 2026-05-04 18:47 | 26.56411 | -78.71164 | 16056 ft | 240 kts | 300° |
| 2026-05-04 18:47 | 26.57370 | -78.72658 | 16051 ft | 239 kts | 300° |
| 2026-05-04 18:48 | 26.58337 | -78.74173 | 16055 ft | 239 kts | 300° |
| 2026-05-04 18:48 | 26.59303 | -78.75687 | 16058 ft | 239 kts | 300° |
| 2026-05-04 18:48 | 26.60268 | -78.77198 | 16058 ft | 238 kts | 300° |
| 2026-05-04 18:48 | 26.61230 | -78.78704 | 16057 ft | 238 kts | 300° |
| 2026-05-04 18:49 | 26.62196 | -78.80219 | 16056 ft | 239 kts | 300° |
| 2026-05-04 18:49 | 26.63159 | -78.81729 | 16055 ft | 238 kts | 300° |
| 2026-05-04 18:49 | 26.64110 | -78.83220 | 16054 ft | 238 kts | 300° |
| 2026-05-04 18:49 | 26.65070 | -78.84726 | 16052 ft | 238 kts | 300° |
| 2026-05-04 18:50 | 26.66029 | -78.86231 | 16052 ft | 238 kts | 300° |
| 2026-05-04 18:50 | 26.66989 | -78.87739 | 16048 ft | 238 kts | 300° |
| 2026-05-04 18:50 | 26.67949 | -78.89246 | 16046 ft | 238 kts | 300° |
| 2026-05-04 18:50 | 26.68908 | -78.90752 | 16043 ft | 238 kts | 300° |
| 2026-05-04 18:51 | 26.69868 | -78.92261 | 16046 ft | 237 kts | 300° |
| 2026-05-04 18:51 | 26.70826 | -78.93766 | 16044 ft | 237 kts | 300° |
| 2026-05-04 18:51 | 26.71782 | -78.95270 | 16046 ft | 238 kts | 300° |
| 2026-05-04 18:51 | 26.72743 | -78.96782 | 16040 ft | 238 kts | 300° |
| 2026-05-04 18:52 | 26.73700 | -78.98288 | 16038 ft | 238 kts | 300° |
| 2026-05-04 18:52 | 26.74658 | -78.99796 | 16042 ft | 238 kts | 300° |
| 2026-05-04 18:52 | 26.75606 | -79.01290 | 16038 ft | 238 kts | 300° |
| 2026-05-04 18:52 | 26.76564 | -79.02799 | 16040 ft | 238 kts | 300° |
| 2026-05-04 18:53 | 26.77523 | -79.04309 | 16037 ft | 238 kts | 300° |
| 2026-05-04 18:53 | 26.78480 | -79.05817 | 16037 ft | 237 kts | 300° |
| 2026-05-04 18:53 | 26.79436 | -79.07324 | 16039 ft | 236 kts | 300° |
| 2026-05-04 18:53 | 26.80384 | -79.08821 | 16038 ft | 236 kts | 300° |
| 2026-05-04 18:54 | 26.81336 | -79.10323 | 16037 ft | 236 kts | 300° |
| 2026-05-04 18:54 | 26.82284 | -79.11819 | 16042 ft | 235 kts | 300° |
| 2026-05-04 18:54 | 26.83229 | -79.13312 | 16042 ft | 235 kts | 300° |
| 2026-05-04 18:54 | 26.84172 | -79.14802 | 16043 ft | 235 kts | 300° |
| 2026-05-04 18:55 | 26.85116 | -79.16293 | 16040 ft | 235 kts | 300° |
| 2026-05-04 18:55 | 26.87001 | -79.19272 | 16041 ft | 234 kts | 300° |
| 2026-05-04 18:55 | 26.87941 | -79.20759 | 16043 ft | 233 kts | 300° |
| 2026-05-04 18:56 | 26.88883 | -79.22250 | 15879 ft | 237 kts | 300° |
| 2026-05-04 18:56 | 26.89834 | -79.23758 | 15668 ft | 242 kts | 300° |
| 2026-05-04 18:56 | 26.90825 | -79.25326 | 15454 ft | 245 kts | 301° |
| 2026-05-04 18:56 | 26.91799 | -79.26868 | 15244 ft | 247 kts | 301° |
| 2026-05-04 18:57 | 26.92793 | -79.28441 | 15036 ft | 248 kts | 301° |
| 2026-05-04 18:57 | 26.93788 | -79.30019 | 14817 ft | 249 kts | 301° |
| 2026-05-04 18:57 | 26.94793 | -79.31612 | 14616 ft | 249 kts | 301° |
| 2026-05-04 18:57 | 26.95795 | -79.33202 | 14407 ft | 250 kts | 301° |
| 2026-05-04 18:58 | 26.96798 | -79.34792 | 14205 ft | 250 kts | 301° |
| 2026-05-04 18:58 | 26.97802 | -79.36386 | 14000 ft | 250 kts | 301° |
| 2026-05-04 18:58 | 26.98806 | -79.37980 | 13786 ft | 250 kts | 302° |
| 2026-05-04 18:58 | 26.99809 | -79.39574 | 13558 ft | 250 kts | 302° |
| 2026-05-04 18:59 | 27.00813 | -79.41168 | 13323 ft | 250 kts | 302° |
| 2026-05-04 18:59 | 27.01815 | -79.42762 | 13096 ft | 250 kts | 302° |
| 2026-05-04 18:59 | 27.02815 | -79.44352 | 12869 ft | 250 kts | 302° |
| 2026-05-04 18:59 | 27.03818 | -79.45948 | 12641 ft | 250 kts | 302° |
| 2026-05-04 19:00 | 27.04819 | -79.47540 | 12408 ft | 250 kts | 302° |
| 2026-05-04 19:00 | 27.05820 | -79.49134 | 12186 ft | 250 kts | 302° |
| 2026-05-04 19:00 | 27.06819 | -79.50724 | 11965 ft | 249 kts | 302° |
| 2026-05-04 19:00 | 27.07801 | -79.52290 | 11765 ft | 248 kts | 302° |
| 2026-05-04 19:01 | 27.08808 | -79.53893 | 11574 ft | 247 kts | 302° |
| 2026-05-04 19:01 | 27.09784 | -79.55449 | 11382 ft | 247 kts | 302° |
| 2026-05-04 19:01 | 27.10772 | -79.57025 | 11191 ft | 246 kts | 302° |
| 2026-05-04 19:01 | 27.11757 | -79.58596 | 11000 ft | 246 kts | 302° |
| 2026-05-04 19:02 | 27.12743 | -79.60172 | 10808 ft | 246 kts | 301° |
| 2026-05-04 19:02 | 27.13729 | -79.61745 | 10619 ft | 246 kts | 302° |
| 2026-05-04 19:02 | 27.14717 | -79.63323 | 10428 ft | 247 kts | 302° |
| 2026-05-04 19:02 | 27.15703 | -79.64897 | 10243 ft | 246 kts | 301° |
| 2026-05-04 19:03 | 27.16688 | -79.66472 | 10057 ft | 246 kts | 301° |
| 2026-05-04 19:03 | 27.17341 | -79.67516 | 9932 ft | 246 kts | 301° |
| 2026-05-04 19:03 | 27.18324 | -79.69087 | 9727 ft | 246 kts | 302° |
| 2026-05-04 19:03 | 27.19312 | -79.70668 | 9524 ft | 246 kts | 302° |
| 2026-05-04 19:04 | 27.20616 | -79.72754 | 9257 ft | 246 kts | 302° |
| 2026-05-04 19:04 | 27.21277 | -79.73811 | 9119 ft | 244 kts | 302° |
| 2026-05-04 19:04 | 27.22247 | -79.75362 | 8912 ft | 241 kts | 302° |
| 2026-05-04 19:04 | 27.23205 | -79.76899 | 8717 ft | 240 kts | 302° |
| 2026-05-04 19:05 | 27.24163 | -79.78434 | 8515 ft | 238 kts | 302° |
| 2026-05-04 19:05 | 27.25107 | -79.79946 | 8310 ft | 235 kts | 302° |
| 2026-05-04 19:05 | 27.25859 | -79.81541 | 8120 ft | 229 kts | 284° |
| 2026-05-04 19:05 | 27.25951 | -79.83281 | 7988 ft | 225 kts | 261° |
| 2026-05-04 19:06 | 27.25630 | -79.84978 | 7992 ft | 215 kts | 257° |
| 2026-05-04 19:06 | 27.25303 | -79.86587 | 7987 ft | 207 kts | 257° |
| 2026-05-04 19:06 | 27.24996 | -79.88121 | 7986 ft | 201 kts | 257° |
| 2026-05-04 19:06 | 27.24697 | -79.89629 | 7984 ft | 195 kts | 257° |
| 2026-05-04 19:07 | 27.24403 | -79.91104 | 7983 ft | 191 kts | 257° |
| 2026-05-04 19:07 | 27.24114 | -79.92548 | 7980 ft | 188 kts | 257° |
| 2026-05-04 19:07 | 27.23830 | -79.93968 | 7984 ft | 186 kts | 257° |
| 2026-05-04 19:07 | 27.23547 | -79.95383 | 7984 ft | 185 kts | 257° |
| 2026-05-04 19:08 | 27.23264 | -79.96799 | 7988 ft | 186 kts | 257° |
| 2026-05-04 19:08 | 27.22979 | -79.98221 | 7993 ft | 189 kts | 257° |
| 2026-05-04 19:08 | 27.22688 | -79.99675 | 7990 ft | 191 kts | 257° |
| 2026-05-04 19:08 | 27.22397 | -80.01126 | 7982 ft | 189 kts | 257° |
| 2026-05-04 19:09 | 27.22111 | -80.02554 | 7981 ft | 186 kts | 257° |
| 2026-05-04 19:09 | 27.21828 | -80.03961 | 7978 ft | 182 kts | 257° |
| 2026-05-04 19:09 | 27.21551 | -80.05341 | 7979 ft | 180 kts | 257° |
| 2026-05-04 19:09 | 27.21276 | -80.06710 | 7892 ft | 183 kts | 257° |
| 2026-05-04 19:10 | 27.20980 | -80.08181 | 7420 ft | 200 kts | 257° |
| 2026-05-04 19:10 | 27.20669 | -80.09735 | 6951 ft | 212 kts | 256° |
| 2026-05-04 19:10 | 27.20333 | -80.11406 | 6478 ft | 222 kts | 256° |
| 2026-05-04 19:10 | 27.19990 | -80.13105 | 5993 ft | 229 kts | 257° |
| 2026-05-04 19:11 | 27.19635 | -80.14867 | 5496 ft | 234 kts | 257° |
| 2026-05-04 19:11 | 27.19280 | -80.16635 | 5017 ft | 229 kts | 257° |
| 2026-05-04 19:11 | 27.18933 | -80.18361 | 4521 ft | 225 kts | 258° |
| 2026-05-04 19:11 | 27.18589 | -80.20068 | 4022 ft | 223 kts | 259° |
| 2026-05-04 19:12 | 27.18224 | -80.21761 | 3527 ft | 223 kts | 257° |
| 2026-05-04 19:12 | 27.17498 | -80.25033 | 2706 ft | 211 kts | 257° |
| 2026-05-04 19:12 | 27.17133 | -80.26638 | 2322 ft | 207 kts | 258° |
| 2026-05-04 19:13 | 27.16769 | -80.28185 | 1997 ft | 201 kts | 257° |
| 2026-05-04 19:13 | 27.16433 | -80.29597 | 1981 ft | 174 kts | 258° |
| 2026-05-04 19:13 | 27.16139 | -80.30838 | 1982 ft | 156 kts | 257° |
| 2026-05-04 19:13 | 27.15869 | -80.31990 | 1980 ft | 154 kts | 257° |
| 2026-05-04 19:14 | 27.15578 | -80.33155 | 1975 ft | 159 kts | 258° |
| 2026-05-04 19:14 | 27.15287 | -80.34366 | 1995 ft | 164 kts | 257° |